KPSP Airport Information

Runway Information
Runway 13L Length 4952 ft width 75 ft
Elevation 449 ft Threshold 0 ft Heading 144
Runway 31R Length 4952 ft Width 75 ft
Elevation 407 ft Threshold 0 ft Heading 324
Runway 13R Length 10000 ft width 150 ft
Elevation 451 ft Threshold 3000 ft Heading 144
Runway 31L Length 10000 ft Width 150 ft
Elevation 405 ft Threshold 1500 ft Heading 324
Airport Frequencies
Type A/D Name APP/DEP Frequency 126.7 MHZ
Type ATIS Name ATIS Frequency 118.25 MHZ
Type CLD Name CLNC DEL Frequency 128.35 MHZ
Type CTAF Name CTAF Frequency 119.7 MHZ
Type GND Name GND Frequency 121.9 MHZ
Type RDO Name RIVERSIDE Frequency 115.5 MHZ
Type TWR Name TWR Frequency 119.7 MHZ
Type UNIC Name UNICOM Frequency 122.95 MHZ
Airport Navaids
Type VORTAC Name Palm Springs Frequency 115500 KHZ
Airport Weather Information & NOTAM
ADDS - METARS form results

(1912 UTC 22 June 2018)
 
METAR text: KPSP 221853Z 09005KT 10SM CLR 41/06 A2975 RMK AO2 SLP068 T04110056
Conditions at: KPSP (PALM SPRINGS , CA, US) observed 1853 UTC 22 June 2018
Temperature: 41.1°C (106°F)
Dewpoint: 5.6°C (42°F) [RH = 12%]
Pressure (altimeter): 29.75 inches Hg (1007.5 mb)
[Sea-level pressure: 1006.8 mb]
Winds: from the E (90 degrees) at 6 MPH (5 knots; 2.6 m/s)
Visibility: 10 or more miles (16+ km)
Ceiling: at least 12,000 feet AGL
Clouds: sky clear below 12,000 feet AGL
Weather: no significant weather observed at this time